createdAt,value
2019-02-10T00:00:06.355Z,6.99
2019-02-10T00:05:24.841Z,6.97
2019-02-10T00:10:43.386Z,6.88
2019-02-10T00:16:07.455Z,6.86
2019-02-10T00:21:26.030Z,6.91
2019-02-10T00:26:44.890Z,6.88
2019-02-10T00:32:04.010Z,6.81
2019-02-10T00:37:22.692Z,6.89
2019-02-10T00:42:41.411Z,6.88
2019-02-10T00:47:59.977Z,6.89
2019-02-10T00:53:18.597Z,6.86
2019-02-10T00:58:37.161Z,6.94
2019-02-10T01:03:55.661Z,6.99
2019-02-10T01:09:14.268Z,7.01
2019-02-10T01:14:33.058Z,7.06
2019-02-10T01:19:51.678Z,7.10
2019-02-10T01:25:10.292Z,7.05
2019-02-10T01:30:28.976Z,7.06
2019-02-10T01:35:47.589Z,7.11
2019-02-10T01:41:06.152Z,7.11
2019-02-10T01:46:24.698Z,7.18
2019-02-10T01:51:43.821Z,7.05
2019-02-10T01:57:02.362Z,6.96
2019-02-10T02:02:20.899Z,6.95
2019-02-10T02:07:39.530Z,6.85
2019-02-10T02:12:57.987Z,6.78
2019-02-10T02:18:16.472Z,6.75
2019-02-10T02:23:35.018Z,6.81
2019-02-10T02:28:53.636Z,6.77
2019-02-10T02:34:12.248Z,6.73
2019-02-10T02:39:30.913Z,6.85
2019-02-10T02:44:49.756Z,6.78
2019-02-10T02:50:10.917Z,6.74
2019-02-10T02:55:29.548Z,6.87
2019-02-10T03:00:48.167Z,6.69
2019-02-10T03:06:06.640Z,6.69
2019-02-10T03:11:25.380Z,6.58
2019-02-10T03:16:43.936Z,6.49
2019-02-10T03:22:02.549Z,6.28
2019-02-10T03:27:21.330Z,6.19
2019-02-10T03:32:40.377Z,6.14
2019-02-10T03:37:59.015Z,6.04
2019-02-10T03:43:17.630Z,6.07
2019-02-10T03:48:36.238Z,6.00
2019-02-10T03:53:55.069Z,5.94
2019-02-10T03:59:13.816Z,5.98
2019-02-10T04:04:32.364Z,5.92
2019-02-10T04:09:51.193Z,5.92
2019-02-10T04:15:09.877Z,5.86
2019-02-10T04:20:28.444Z,5.87
2019-02-10T04:25:46.980Z,5.78
2019-02-10T04:31:05.585Z,5.85
2019-02-10T04:36:24.121Z,5.83
2019-02-10T04:41:42.735Z,5.80
2019-02-10T04:47:01.207Z,5.76
2019-02-10T04:52:19.948Z,5.82
2019-02-10T04:57:38.427Z,5.83
2019-02-10T05:02:57.018Z,5.85
2019-02-10T05:08:15.543Z,5.82
2019-02-10T05:13:34.075Z,5.83
2019-02-10T05:18:52.639Z,5.89
2019-02-10T05:24:11.137Z,5.90
2019-02-10T05:29:29.930Z,5.99
2019-02-10T05:34:48.473Z,6.05
2019-02-10T05:40:08.132Z,6.05
2019-02-10T05:45:26.885Z,6.12
2019-02-10T05:50:45.421Z,6.14
2019-02-10T05:56:04.033Z,6.16
2019-02-10T06:01:59.452Z,6.26
2019-02-10T06:07:22.018Z,6.33
2019-02-10T06:12:41.984Z,6.32
2019-02-10T06:18:00.530Z,6.43
2019-02-10T06:23:19.122Z,6.46
2019-02-10T06:28:40.909Z,6.62
2019-02-10T06:34:03.872Z,6.58
2019-02-10T06:39:22.808Z,6.61
2019-02-10T06:44:41.273Z,6.60
2019-02-10T06:50:01.455Z,6.62
2019-02-10T06:55:20.060Z,6.76
2019-02-10T07:00:40.173Z,6.78
2019-02-10T07:05:58.722Z,6.81
2019-02-10T07:11:17.262Z,6.85
2019-02-10T07:16:41.751Z,6.88
2019-02-10T07:22:01.294Z,6.97
2019-02-10T07:27:22.829Z,6.98
2019-02-10T07:32:52.275Z,7.02
2019-02-10T07:38:16.219Z,7.12
2019-02-10T07:43:43.560Z,7.12
2019-02-10T07:49:05.068Z,7.24
2019-02-10T07:54:42.292Z,7.38
2019-02-10T08:00:12.716Z,7.40
2019-02-10T08:05:39.736Z,7.53
2019-02-10T08:11:32.744Z,7.59
2019-02-10T08:16:57.110Z,7.63
2019-02-10T08:22:30.376Z,7.76
2019-02-10T08:27:57.883Z,7.76
2019-02-10T08:33:28.090Z,7.88
2019-02-10T08:39:01.370Z,7.77
2019-02-10T08:44:34.998Z,7.89
2019-02-10T08:50:20.446Z,8.08
2019-02-10T08:55:38.918Z,8.18
2019-02-10T09:00:57.555Z,8.22
2019-02-10T09:06:16.013Z,8.14
2019-02-10T09:11:34.546Z,8.21
2019-02-10T09:16:53.164Z,8.32
2019-02-10T09:22:11.714Z,8.24
2019-02-10T09:27:30.425Z,8.20
2019-02-10T09:32:48.959Z,8.16
2019-02-10T09:38:07.494Z,8.14
2019-02-10T09:43:26.037Z,8.11
2019-02-10T09:48:45.757Z,8.04
2019-02-10T09:54:04.244Z,8.08
2019-02-10T09:59:22.791Z,8.16
2019-02-10T10:04:49.954Z,8.10
2019-02-10T10:10:11.490Z,8.13
2019-02-10T10:15:30.055Z,8.12
2019-02-10T10:20:48.862Z,8.12
2019-02-10T10:26:07.325Z,8.11
2019-02-10T10:31:48.947Z,8.12
2019-02-10T10:37:07.565Z,8.13
2019-02-10T10:42:26.294Z,8.15
2019-02-10T10:47:46.612Z,8.16
2019-02-10T10:53:05.156Z,8.20
2019-02-10T10:58:23.818Z,8.18
2019-02-10T11:03:42.382Z,8.16
2019-02-10T11:09:11.286Z,8.25
2019-02-10T11:14:34.689Z,8.34
2019-02-10T11:19:53.165Z,8.35
2019-02-10T11:25:12.217Z,8.42
2019-02-10T11:30:32.236Z,8.40
2019-02-10T11:35:50.701Z,8.37
2019-02-10T11:41:09.451Z,8.39
2019-02-10T11:46:30.609Z,8.47
2019-02-10T11:51:49.168Z,8.42
2019-02-10T11:57:07.692Z,8.22
2019-02-10T12:02:26.256Z,8.24
2019-02-10T12:13:41.372Z,8.22
2019-02-10T12:19:03.851Z,8.03
2019-02-10T12:24:31.732Z,8.08
2019-02-10T12:30:03.274Z,7.89
2019-02-10T12:35:24.921Z,7.88
2019-02-10T12:41:25.930Z,7.70
2019-02-10T12:46:50.599Z,7.59
2019-02-10T12:58:00.582Z,7.35
2019-02-10T13:09:29.778Z,7.24
2019-02-10T13:32:27.815Z,7.23
2019-02-10T13:37:49.453Z,7.30
2019-02-10T13:43:10.320Z,7.25
2019-02-10T13:48:28.703Z,7.44
2019-02-10T13:53:53.382Z,7.39
2019-02-10T13:59:12.462Z,7.31
2019-02-10T14:04:31.198Z,7.22
2019-02-10T14:09:51.470Z,7.12
2019-02-10T14:15:15.439Z,7.06
2019-02-10T14:20:35.718Z,7.07
2019-02-10T14:25:54.538Z,6.99
2019-02-10T14:31:18.275Z,7.07
2019-02-10T14:36:45.873Z,7.23
2019-02-10T14:42:04.949Z,7.28
2019-02-10T14:47:23.544Z,7.23
2019-02-10T14:52:42.170Z,7.18
2019-02-10T14:58:11.028Z,7.12
2019-02-10T15:03:33.849Z,6.94
2019-02-10T15:08:54.873Z,6.64
2019-02-10T15:14:17.653Z,6.53
2019-02-10T15:19:44.266Z,6.29
2019-02-10T15:25:05.016Z,6.25
2019-02-10T15:30:26.057Z,6.23
2019-02-10T15:35:53.096Z,6.19
2019-02-10T15:41:11.801Z,6.18
2019-02-10T15:46:36.069Z,6.15
2019-02-10T15:51:54.592Z,6.15
2019-02-10T15:57:15.899Z,6.10
2019-02-10T16:02:36.561Z,6.10
2019-02-10T16:07:55.262Z,6.03
2019-02-10T16:13:18.004Z,5.97
2019-02-10T16:18:37.784Z,5.95
2019-02-10T16:23:56.829Z,5.96
2019-02-10T16:29:16.977Z,5.92
2019-02-10T16:34:39.153Z,5.90
2019-02-10T16:39:59.846Z,5.82
2019-02-10T16:45:30.134Z,5.77
2019-02-10T16:50:50.441Z,5.65
2019-02-10T16:56:14.882Z,5.59
2019-02-10T17:01:35.190Z,5.45
2019-02-10T17:13:04.219Z,5.32
2019-02-10T17:18:18.470Z,5.22
2019-02-10T17:23:38.532Z,5.16
2019-02-10T17:29:03.385Z,5.16
2019-02-10T17:34:23.521Z,5.10
2019-02-10T17:39:51.835Z,5.08
2019-02-10T17:45:15.340Z,5.05
2019-02-10T17:50:40.233Z,4.97
2019-02-10T17:56:08.859Z,5.01
2019-02-10T18:01:34.111Z,4.94
2019-02-10T18:06:55.282Z,4.92
2019-02-10T18:12:18.579Z,4.94
2019-02-10T18:17:49.488Z,5.00
2019-02-10T18:23:10.769Z,4.96
2019-02-10T18:28:36.192Z,4.78
2019-02-10T18:33:58.744Z,4.73
2019-02-10T18:39:21.377Z,4.70
2019-02-10T18:44:44.361Z,4.65
2019-02-10T18:50:23.754Z,4.58
2019-02-10T18:55:46.439Z,4.52
2019-02-10T19:01:12.002Z,4.50
2019-02-10T19:06:34.969Z,4.43
2019-02-10T19:12:01.504Z,4.40
2019-02-10T19:17:24.647Z,4.35
2019-02-10T19:22:53.637Z,4.29
2019-02-10T19:28:25.530Z,4.20
2019-02-10T19:34:01.874Z,4.07
2019-02-10T19:39:22.090Z,3.90
2019-02-10T19:44:42.281Z,3.67
2019-02-10T19:50:11.602Z,3.45
2019-02-10T19:55:37.901Z,3.29
2019-02-10T20:01:04.124Z,3.19
2019-02-10T20:06:36.172Z,3.11
2019-02-10T20:12:03.762Z,3.10
2019-02-10T20:17:34.768Z,3.11
2019-02-10T20:23:11.221Z,3.11
2019-02-10T20:28:36.957Z,3.02
2019-02-10T20:34:13.544Z,2.93
2019-02-10T20:39:33.728Z,2.85
2019-02-10T20:45:09.011Z,2.83
2019-02-10T20:50:29.359Z,2.71
2019-02-10T20:56:06.870Z,2.64
2019-02-10T21:01:43.128Z,2.56
2019-02-10T21:07:18.573Z,2.53
2019-02-10T21:12:43.452Z,2.42
2019-02-10T21:18:16.975Z,2.36
2019-02-10T21:23:53.704Z,2.36
2019-02-10T21:29:22.908Z,2.32
2019-02-10T21:34:57.951Z,2.32
2019-02-10T21:40:41.711Z,2.30
2019-02-10T21:46:36.669Z,2.19
2019-02-10T21:51:55.325Z,2.05
2019-02-10T21:57:15.259Z,2.03
2019-02-10T22:02:33.935Z,1.87
2019-02-10T22:07:54.614Z,1.67
2019-02-10T22:13:13.369Z,1.50
2019-02-10T22:18:32.058Z,1.30
2019-02-10T22:23:50.619Z,1.03
2019-02-10T22:29:09.264Z,0.78
2019-02-10T22:34:28.743Z,0.63
2019-02-10T22:39:47.390Z,0.59
2019-02-10T22:45:08.817Z,0.57
2019-02-10T22:50:27.417Z,0.64
2019-02-10T22:55:45.982Z,0.61
2019-02-10T23:01:06.128Z,0.60
2019-02-10T23:06:24.758Z,0.63
2019-02-10T23:11:43.638Z,0.64
2019-02-10T23:17:02.204Z,0.64
2019-02-10T23:22:20.865Z,0.61
2019-02-10T23:27:39.552Z,0.61
2019-02-10T23:32:58.245Z,0.60
2019-02-10T23:38:16.790Z,0.72
2019-02-10T23:43:35.449Z,0.92
2019-02-10T23:48:54.025Z,1.13
2019-02-10T23:54:12.755Z,1.29
2019-02-10T23:59:32.481Z,1.47
